Time;durP1;ratioP1;P1;durP2;ratioP2;P2;SDS_P1;SDS_P2;PMS_P1;PMS_P2;Temp;Humidity;BMP_temperature;BMP_pressure;BME280_temperature;BME280_humidity;BME280_pressure;Samples;Min_cycle;Max_cycle;Signal;HPM_P1;HPM_P2
2021/10/08 00:00:07;;;;;;;;;;;;;;;8.31;77.03;102272.16;1931811;74;20140;-61
2021/10/08 00:05:31;;;;;;;;;;;;;;;8.25;76.58;102277.45;1863741;77;20616;-58
2021/10/08 00:08:01;;;;;;;;;;;;;;;8.18;76.59;102275.28;1863593;77;20139;-58
2021/10/08 00:10:29;;;;;;;;;;;;;;;8.14;76.87;102281.88;1863661;77;20139;-57
2021/10/08 00:12:56;;;;;;;;;;;;;;;8.08;76.75;102273.14;1863830;77;20147;-58
2021/10/08 00:15:26;;;;;;;;;;;;;;;8.02;76.67;102275.80;1863636;77;20177;-57
2021/10/08 00:17:54;;;;;;;;;;;;;;;7.95;76.56;102272.77;1863525;77;20295;-58
2021/10/08 00:20:22;;;;;;;;;;;;;;;7.88;76.47;102277.59;1863645;77;20155;-57
2021/10/08 00:22:50;;;;;;;;;;;;;;;7.81;76.38;102270.62;1863777;77;20146;-58
2021/10/08 00:25:17;;;;;;;;;;;;;;;7.72;76.35;102267.13;1863661;77;20135;-57
2021/10/08 00:27:45;;;;;;;;;;;;;;;7.67;76.38;102273.27;1863648;77;20228;-57
2021/10/08 00:30:13;;;;;;;;;;;;;;;7.61;76.43;102272.84;1863651;77;20143;-57
2021/10/08 00:32:41;;;;;;;;;;;;;;;7.59;76.49;102266.73;1863606;77;20143;-57
2021/10/08 00:35:09;;;;;;;;;;;;;;;7.56;76.46;102266.73;1863668;77;20151;-57
2021/10/08 00:37:37;;;;;;;;;;;;;;;7.56;76.51;102268.04;1863764;77;20170;-57
2021/10/08 00:40:05;;;;;;;;;;;;;;;7.54;76.49;102259.31;1863641;77;20182;-57
2021/10/08 00:42:34;;;;;;;;;;;;;;;7.53;76.58;102260.20;1863634;77;20177;-57
2021/10/08 00:45:01;;;;;;;;;;;;;;;7.54;76.94;102256.69;1863579;77;20218;-57
2021/10/08 00:47:29;;;;;;;;;;;;;;;7.58;77.21;102260.17;1863570;77;20177;-58
2021/10/08 00:49:57;;;;;;;;;;;;;;;7.60;77.39;102261.04;1863741;77;20146;-57
2021/10/08 00:52:25;;;;;;;;;;;;;;;7.61;77.17;102261.05;1863685;77;20218;-57
2021/10/08 00:54:53;;;;;;;;;;;;;;;7.60;76.91;102261.94;1863643;77;20208;-58
2021/10/08 00:57:21;;;;;;;;;;;;;;;7.58;76.87;102258.87;1863614;77;20147;-57
2021/10/08 00:59:49;;;;;;;;;;;;;;;7.58;76.84;102263.69;1863616;77;20166;-57
2021/10/08 01:02:17;;;;;;;;;;;;;;;7.59;77.16;102261.48;1863680;77;20177;-57
2021/10/08 01:04:48;;;;;;;;;;;;;;;7.61;77.32;102258.88;1861711;77;20198;-57
2021/10/08 01:07:15;;;;;;;;;;;;;;;7.62;77.34;102255.39;1860417;77;20190;-59
2021/10/08 01:09:43;;;;;;;;;;;;;;;7.62;77.44;102256.25;1860338;77;20154;-59
2021/10/08 01:12:11;;;;;;;;;;;;;;;7.62;77.64;102256.70;1860249;77;20147;-59
2021/10/08 01:14:39;;;;;;;;;;;;;;;7.61;77.55;102256.25;1860271;77;20169;-59
2021/10/08 01:17:15;;;;;;;;;;;;;;;7.58;77.32;102257.55;1860368;77;20139;-59
2021/10/08 01:19:43;;;;;;;;;;;;;;;7.54;77.17;102262.83;1860292;77;20404;-60
2021/10/08 01:22:12;;;;;;;;;;;;;;;7.51;77.05;102261.95;1860418;77;20147;-59
2021/10/08 01:24:40;;;;;;;;;;;;;;;7.48;76.99;102257.57;1860220;77;20154;-59
2021/10/08 01:27:09;;;;;;;;;;;;;;;7.47;76.96;102259.78;1860425;77;20416;-59
2021/10/08 01:29:47;;;;;;;;;;;;;;;7.47;76.91;102261.09;1860351;77;20285;-59
2021/10/08 01:32:16;;;;;;;;;;;;;;;7.45;76.88;102256.70;1859623;77;20194;-59
2021/10/08 01:34:44;;;;;;;;;;;;;;;7.43;76.98;102251.91;1860321;77;20139;-59
2021/10/08 01:37:12;;;;;;;;;;;;;;;7.40;77.14;102255.87;1860218;77;20174;-59
2021/10/08 01:39:40;;;;;;;;;;;;;;;7.36;77.13;102260.23;1860428;77;20150;-60
2021/10/08 01:42:08;;;;;;;;;;;;;;;7.33;77.27;102262.84;1860313;77;20143;-59
2021/10/08 01:44:37;;;;;;;;;;;;;;;7.30;77.13;102268.98;1860306;77;20151;-60
2021/10/08 01:47:05;;;;;;;;;;;;;;;7.26;77.11;102272.45;1860311;77;20147;-59
2021/10/08 01:49:33;;;;;;;;;;;;;;;7.23;77.05;102281.64;1860271;77;20139;-60
2021/10/08 01:52:02;;;;;;;;;;;;;;;7.22;77.11;102268.55;1860449;77;20409;-60
2021/10/08 01:54:31;;;;;;;;;;;;;;;7.23;77.16;102276.41;1860326;77;20413;-60
2021/10/08 01:56:59;;;;;;;;;;;;;;;7.25;77.07;102275.06;1860391;77;20140;-60
2021/10/08 01:59:27;;;;;;;;;;;;;;;7.27;77.01;102277.28;1860286;77;20189;-60
2021/10/08 02:01:55;;;;;;;;;;;;;;;7.26;76.92;102272.45;1860317;77;20177;-59
2021/10/08 02:04:23;;;;;;;;;;;;;;;7.24;76.89;102271.58;1860264;77;20147;-60
2021/10/08 02:06:51;;;;;;;;;;;;;;;7.24;76.81;102271.58;1860288;77;20135;-59
2021/10/08 02:09:19;;;;;;;;;;;;;;;7.22;76.72;102271.16;1860316;77;20186;-59
2021/10/08 02:11:47;;;;;;;;;;;;;;;7.19;76.70;102275.08;1860279;77;20218;-59
2021/10/08 02:14:15;;;;;;;;;;;;;;;7.15;76.70;102277.69;1860306;77;20139;-59
2021/10/08 02:16:44;;;;;;;;;;;;;;;7.12;76.69;102280.33;1859999;77;20183;-60
2021/10/08 02:19:12;;;;;;;;;;;;;;;7.10;76.73;102279.88;1860297;77;20178;-59
2021/10/08 02:21:41;;;;;;;;;;;;;;;7.08;76.77;102273.36;1860353;77;20209;-60
2021/10/08 02:24:10;;;;;;;;;;;;;;;7.08;76.76;102272.45;1860461;77;20393;-59
2021/10/08 02:26:42;;;;;;;;;;;;;;;7.07;76.78;102269.42;1860149;77;20159;-59
2021/10/08 02:29:11;;;;;;;;;;;;;;;7.06;76.78;102272.90;1860348;77;20171;-61
2021/10/08 02:31:39;;;;;;;;;;;;;;;7.04;76.77;102272.03;1860355;77;20241;-59
2021/10/08 02:34:07;;;;;;;;;;;;;;;7.03;76.78;102276.84;1860390;77;20135;-59
2021/10/08 02:36:35;;;;;;;;;;;;;;;7.01;76.72;102277.25;1860251;77;20147;-59
2021/10/08 02:39:03;;;;;;;;;;;;;;;7.02;76.73;102282.95;1860305;77;20147;-59
2021/10/08 02:41:31;;;;;;;;;;;;;;;6.99;76.71;102282.93;1860272;77;20155;-60
2021/10/08 02:43:59;;;;;;;;;;;;;;;6.99;76.73;102282.93;1860198;77;20147;-59
2021/10/08 02:46:27;;;;;;;;;;;;;;;6.99;76.74;102280.31;1860430;77;20178;-59
2021/10/08 02:48:55;;;;;;;;;;;;;;;6.97;76.70;102276.38;1860316;77;20131;-58
2021/10/08 02:51:23;;;;;;;;;;;;;;;6.95;76.76;102273.78;1860294;77;20178;-59
2021/10/08 02:53:51;;;;;;;;;;;;;;;6.93;76.73;102274.23;1860266;77;20143;-59
2021/10/08 02:56:18;;;;;;;;;;;;;;;6.90;76.66;102274.21;1860221;77;20147;-60
2021/10/08 02:58:46;;;;;;;;;;;;;;;6.88;76.68;102274.65;1860354;77;20209;-59
2021/10/08 03:01:15;;;;;;;;;;;;;;;6.85;76.76;102287.73;1860354;77;20154;-60
2021/10/08 03:03:43;;;;;;;;;;;;;;;6.86;76.79;102282.94;1860274;77;20144;-60
2021/10/08 03:06:11;;;;;;;;;;;;;;;6.87;76.80;102283.36;1848539;77;20148;-61
2021/10/08 03:08:38;;;;;;;;;;;;;;;6.90;76.82;102289.92;1840987;78;20139;-59
2021/10/08 03:11:06;;;;;;;;;;;;;;;6.92;76.87;102290.80;1840856;78;20191;-59
2021/10/08 03:13:34;;;;;;;;;;;;;;;6.95;76.99;102297.77;1841243;78;20135;-59
2021/10/08 03:16:02;;;;;;;;;;;;;;;6.98;76.89;102300.84;1841110;78;20179;-59
2021/10/08 03:18:30;;;;;;;;;;;;;;;7.01;76.87;102307.38;1841054;78;20131;-59
2021/10/08 03:20:58;;;;;;;;;;;;;;;7.03;76.85;102306.97;1841053;78;20167;-60
2021/10/08 03:23:27;;;;;;;;;;;;;;;7.05;76.84;102296.05;1840981;78;20401;-60
2021/10/08 03:25:54;;;;;;;;;;;;;;;7.09;76.85;102304.34;1841215;78;20148;-59
2021/10/08 03:28:23;;;;;;;;;;;;;;;7.09;76.84;102307.83;1841162;78;20167;-59
2021/10/08 03:30:51;;;;;;;;;;;;;;;7.10;76.85;102302.14;1841065;78;20147;-59
2021/10/08 03:33:18;;;;;;;;;;;;;;;7.13;76.81;102304.77;1841098;78;20144;-60
2021/10/08 03:35:47;;;;;;;;;;;;;;;7.13;77.02;102313.50;1841107;78;20191;-59
2021/10/08 03:38:17;;;;;;;;;;;;;;;7.12;76.94;102310.45;1841011;78;20203;-60
2021/10/08 03:41:10;;;;;;;;;;;;;;;7.11;76.95;102318.31;1841056;78;20144;-61
2021/10/08 03:43:15;;;;;;;;;;;;;;;7.13;77.04;102319.18;1839329;78;20139;-60
2021/10/08 03:45:49;;;;;;;;;;;;;;;7.12;77.09;102322.69;1841163;78;20180;-59
2021/10/08 03:50:50;;;;;;;;;;;;;;;7.11;77.34;102327.48;1841025;78;20143;-59
2021/10/08 03:53:18;;;;;;;;;;;;;;;7.10;77.37;102329.23;1841116;78;20147;-59
2021/10/08 03:55:45;;;;;;;;;;;;;;;7.09;77.41;102326.61;1841129;78;20148;-60
2021/10/08 03:58:13;;;;;;;;;;;;;;;7.06;77.62;102327.91;1841080;78;20144;-60
2021/10/08 04:00:42;;;;;;;;;;;;;;;7.05;77.54;102326.17;1841190;78;20182;-59
2021/10/08 04:03:11;;;;;;;;;;;;;;;7.04;77.64;102332.27;1840827;78;20143;-59
2021/10/08 04:05:39;;;;;;;;;;;;;;;7.04;77.53;102332.27;1841091;78;20143;-61
2021/10/08 04:08:07;;;;;;;;;;;;;;;7.06;77.86;102339.69;1841074;78;20202;-61
2021/10/08 04:10:36;;;;;;;;;;;;;;;7.05;77.58;102338.83;1841107;78;20175;-61
2021/10/08 04:13:04;;;;;;;;;;;;;;;7.10;77.57;102346.67;1841125;78;20170;-61
2021/10/08 04:15:33;;;;;;;;;;;;;;;7.11;77.66;102345.81;1841063;78;20448;-61
2021/10/08 04:18:01;;;;;;;;;;;;;;;7.12;77.63;102344.95;1841094;78;20148;-60
2021/10/08 04:20:29;;;;;;;;;;;;;;;7.15;77.53;102342.31;1841147;78;20144;-61
2021/10/08 04:22:57;;;;;;;;;;;;;;;7.20;77.63;102346.27;1841099;78;20131;-61
2021/10/08 04:25:26;;;;;;;;;;;;;;;7.21;77.65;102350.20;1841005;78;20167;-60
2021/10/08 04:27:54;;;;;;;;;;;;;;;7.19;77.72;102346.68;1841085;78;20147;-61
2021/10/08 04:30:21;;;;;;;;;;;;;;;7.21;77.80;102348.89;1841124;78;20226;-61
2021/10/08 04:32:49;;;;;;;;;;;;;;;7.25;77.70;102345.39;1841156;78;20144;-61
2021/10/08 04:35:18;;;;;;;;;;;;;;;7.28;77.68;102345.37;1841145;78;20147;-61
2021/10/08 04:37:46;;;;;;;;;;;;;;;7.31;77.60;102346.70;1841087;78;20170;-60
2021/10/08 04:40:14;;;;;;;;;;;;;;;7.35;77.69;102343.64;1841098;78;20131;-61
2021/10/08 04:42:42;;;;;;;;;;;;;;;7.37;77.56;102346.27;1841000;78;20190;-62
2021/10/08 04:45:12;;;;;;;;;;;;;;;7.40;77.57;102344.97;1841067;77;20128;-61
2021/10/08 04:47:40;;;;;;;;;;;;;;;7.45;77.48;102351.05;1841123;78;20171;-61
2021/10/08 04:50:08;;;;;;;;;;;;;;;7.49;77.43;102343.66;1841128;78;20160;-60
2021/10/08 04:52:38;;;;;;;;;;;;;;;7.52;77.45;102352.80;1841160;77;20147;-60
2021/10/08 04:55:06;;;;;;;;;;;;;;;7.54;77.35;102354.98;1841019;78;20175;-61
2021/10/08 04:57:34;;;;;;;;;;;;;;;7.58;77.25;102355.45;1841082;78;20147;-60
2021/10/08 05:00:03;;;;;;;;;;;;;;;7.64;77.17;102358.05;1841149;78;20132;-60
2021/10/08 05:02:32;;;;;;;;;;;;;;;7.70;77.23;102355.41;1841038;78;20445;-61
2021/10/08 05:04:59;;;;;;;;;;;;;;;7.77;77.10;102362.84;1841073;78;20136;-60
2021/10/08 05:07:28;;;;;;;;;;;;;;;7.81;77.04;102357.16;1853402;77;20147;-61
2021/10/08 05:09:56;;;;;;;;;;;;;;;7.83;77.03;102358.89;1860206;77;20340;-60
2021/10/08 05:12:27;;;;;;;;;;;;;;;7.86;76.87;102355.41;1860446;77;20146;-61
2021/10/08 05:14:55;;;;;;;;;;;;;;;7.89;76.88;102364.14;1860482;77;20185;-60
2021/10/08 05:17:23;;;;;;;;;;;;;;;7.96;76.77;102362.36;1860389;77;20135;-60
2021/10/08 05:19:51;;;;;;;;;;;;;;;8.03;76.73;102357.98;1860329;77;20174;-60
2021/10/08 05:22:21;;;;;;;;;;;;;;;8.11;76.66;102366.28;1860167;77;20182;-61
2021/10/08 05:24:49;;;;;;;;;;;;;;;8.21;76.62;102367.56;1860359;77;20138;-61
2021/10/08 05:27:18;;;;;;;;;;;;;;;8.27;76.50;102370.16;1860500;77;20198;-62
2021/10/08 05:29:46;;;;;;;;;;;;;;;8.32;76.37;102363.15;1860344;77;20217;-61
2021/10/08 05:32:14;;;;;;;;;;;;;;;8.38;75.98;102362.25;1860343;77;20151;-61
2021/10/08 05:34:42;;;;;;;;;;;;;;;8.40;75.75;102363.98;1860485;77;20214;-61
2021/10/08 05:37:10;;;;;;;;;;;;;;;8.43;75.34;102365.77;1860308;77;20253;-61
2021/10/08 05:39:38;;;;;;;;;;;;;;;8.46;75.40;102360.03;1860347;77;20147;-62
2021/10/08 05:42:06;;;;;;;;;;;;;;;8.47;75.16;102356.55;1860376;77;20217;-61
2021/10/08 05:44:35;;;;;;;;;;;;;;;8.49;74.60;102362.66;1860461;77;20241;-61
2021/10/08 05:47:03;;;;;;;;;;;;;;;8.50;74.37;102355.23;1860591;77;20169;-61
2021/10/08 05:49:31;;;;;;;;;;;;;;;8.61;74.33;102357.81;1860250;77;20143;-62
2021/10/08 05:51:59;;;;;;;;;;;;;;;8.68;74.19;102356.00;1860341;77;20143;-61
2021/10/08 05:54:27;;;;;;;;;;;;;;;8.74;73.64;102360.35;1860380;77;20214;-61
2021/10/08 05:56:55;;;;;;;;;;;;;;;8.76;73.38;102355.95;1860329;77;20147;-61
2021/10/08 05:59:23;;;;;;;;;;;;;;;8.84;73.46;102359.43;1860310;77;20150;-61
2021/10/08 06:01:51;;;;;;;;;;;;;;;8.89;73.07;102361.59;1860270;77;20135;-61
2021/10/08 06:04:20;;;;;;;;;;;;;;;8.89;73.15;102361.14;1860240;77;20260;-61
2021/10/08 06:06:47;;;;;;;;;;;;;;;8.88;72.87;102360.70;1860185;77;20584;-62
2021/10/08 06:09:15;;;;;;;;;;;;;;;8.86;72.70;102364.23;1860316;77;20146;-61
2021/10/08 06:11:44;;;;;;;;;;;;;;;8.82;72.52;102362.06;1860315;77;20147;-61
2021/10/08 06:14:12;;;;;;;;;;;;;;;8.82;72.74;102358.13;1860311;77;20135;-61
2021/10/08 06:16:41;;;;;;;;;;;;;;;8.82;72.94;102364.69;1860230;77;20142;-61
2021/10/08 06:19:09;;;;;;;;;;;;;;;8.87;73.21;102361.60;1860310;77;20150;-61
2021/10/08 06:21:37;;;;;;;;;;;;;;;8.93;73.33;102366.36;1860351;77;20181;-61
2021/10/08 06:24:05;;;;;;;;;;;;;;;8.93;73.28;102365.94;1860352;77;20162;-62
2021/10/08 06:26:33;;;;;;;;;;;;;;;8.88;72.89;102368.58;1860270;77;20139;-61
2021/10/08 06:29:01;;;;;;;;;;;;;;;8.83;72.83;102361.61;1860222;77;20147;-62
2021/10/08 06:31:29;;;;;;;;;;;;;;;8.83;73.09;102366.41;1860400;77;20147;-61
2021/10/08 06:33:58;;;;;;;;;;;;;;;8.84;73.26;102370.80;1860418;77;20201;-61
2021/10/08 06:36:26;;;;;;;;;;;;;;;8.82;73.02;102371.25;1860280;77;20134;-61
2021/10/08 06:38:55;;;;;;;;;;;;;;;8.81;73.03;102368.63;1860342;77;20142;-61
2021/10/08 06:41:23;;;;;;;;;;;;;;;8.79;72.81;102369.95;1860257;77;20178;-61
2021/10/08 06:43:52;;;;;;;;;;;;;;;8.77;72.84;102368.22;1860286;77;20246;-61
2021/10/08 06:46:22;;;;;;;;;;;;;;;8.73;72.97;102367.37;1860108;77;20156;-61
2021/10/08 06:48:50;;;;;;;;;;;;;;;8.77;73.27;102365.15;1860398;77;20150;-61
2021/10/08 06:51:19;;;;;;;;;;;;;;;8.80;73.30;102366.91;1860526;77;20138;-61
2021/10/08 06:53:46;;;;;;;;;;;;;;;8.82;73.30;102369.94;1860433;77;20189;-60
2021/10/08 06:56:14;;;;;;;;;;;;;;;8.81;73.04;102372.13;1860299;77;20143;-61
2021/10/08 06:58:53;;;;;;;;;;;;;;;8.80;73.08;102374.33;1860521;77;20174;-61
2021/10/08 07:01:21;;;;;;;;;;;;;;;8.79;73.13;102369.95;1860419;77;20154;-61
2021/10/08 07:03:50;;;;;;;;;;;;;;;8.79;73.18;102373.89;1860453;77;20423;-61
2021/10/08 07:06:18;;;;;;;;;;;;;;;8.85;73.24;102371.25;1860407;77;20198;-60
2021/10/08 07:08:46;;;;;;;;;;;;;;;8.88;73.18;102380.41;1860206;77;20139;-61
2021/10/08 07:11:13;;;;;;;;;;;;;;;8.91;73.13;102381.27;1860618;77;20169;-61
2021/10/08 07:13:41;;;;;;;;;;;;;;;8.94;73.11;102380.80;1860371;77;20147;-61
2021/10/08 07:16:09;;;;;;;;;;;;;;;8.98;72.84;102380.34;1860371;77;20147;-61
2021/10/08 07:18:38;;;;;;;;;;;;;;;9.04;72.96;102386.90;1860396;77;20278;-61
2021/10/08 07:21:06;;;;;;;;;;;;;;;9.12;72.91;102385.53;1860295;77;20185;-62
2021/10/08 07:23:34;;;;;;;;;;;;;;;9.16;72.60;102382.86;1860354;77;20201;-61
2021/10/08 07:26:02;;;;;;;;;;;;;;;9.21;72.67;102383.70;1860450;77;20143;-61
2021/10/08 07:28:30;;;;;;;;;;;;;;;9.24;72.33;102388.95;1860414;77;20143;-61
2021/10/08 07:30:58;;;;;;;;;;;;;;;9.32;72.45;102388.89;1860387;77;20214;-61
2021/10/08 07:33:26;;;;;;;;;;;;;;;9.33;71.89;102384.04;1860389;77;20138;-61
2021/10/08 07:35:53;;;;;;;;;;;;;;;9.39;72.11;102387.09;1860288;77;20146;-61
2021/10/08 07:38:21;;;;;;;;;;;;;;;9.49;71.73;102387.44;1860359;77;20185;-61
2021/10/08 07:40:49;;;;;;;;;;;;;;;9.59;71.71;102377.70;1860385;77;20147;-61
2021/10/08 07:43:17;;;;;;;;;;;;;;;9.74;71.39;102383.27;1860319;77;20147;-61
2021/10/08 07:45:45;;;;;;;;;;;;;;;9.93;71.50;102380.90;1860368;77;20135;-61
2021/10/08 07:48:12;;;;;;;;;;;;;;;10.07;70.70;102381.19;1860262;77;20146;-61
2021/10/08 07:50:40;;;;;;;;;;;;;;;10.16;70.52;102379.77;1860376;77;20147;-61
2021/10/08 07:53:08;;;;;;;;;;;;;;;10.29;70.65;102384.03;1860369;77;20206;-61
2021/10/08 07:55:36;;;;;;;;;;;;;;;10.38;70.07;102387.91;1860376;77;20143;-61
2021/10/08 07:58:04;;;;;;;;;;;;;;;10.39;69.54;102384.38;1860360;77;20135;-61
2021/10/08 08:00:32;;;;;;;;;;;;;;;10.47;69.53;102383.41;1860336;77;20143;-61
2021/10/08 08:03:00;;;;;;;;;;;;;;;10.63;69.54;102378.38;1860399;77;20249;-61
2021/10/08 08:05:28;;;;;;;;;;;;;;;10.88;68.45;102381.56;1860358;77;20178;-62
2021/10/08 08:07:56;;;;;;;;;;;;;;;11.03;66.97;102377.83;1860239;77;20173;-63
2021/10/08 08:10:24;;;;;;;;;;;;;;;11.30;66.53;102383.56;1860275;77;20143;-61
2021/10/08 08:12:51;;;;;;;;;;;;;;;11.58;66.21;102375.63;1860365;77;20181;-61
2021/10/08 08:15:19;;;;;;;;;;;;;;;11.81;65.04;102376.98;1860293;77;20146;-61
2021/10/08 08:17:47;;;;;;;;;;;;;;;12.06;65.45;102379.20;1860474;77;20142;-61
2021/10/08 08:20:15;;;;;;;;;;;;;;;12.25;64.57;102380.59;1860365;77;20134;-61
2021/10/08 08:22:43;;;;;;;;;;;;;;;12.20;63.76;102385.08;1860333;77;20171;-61
2021/10/08 08:25:11;;;;;;;;;;;;;;;11.96;63.74;102385.97;1860301;77;20154;-62
2021/10/08 08:27:39;;;;;;;;;;;;;;;11.83;63.81;102385.75;1860344;77;20229;-61
2021/10/08 08:30:07;;;;;;;;;;;;;;;11.65;63.88;102384.29;1860237;77;20343;-61
2021/10/08 08:32:35;;;;;;;;;;;;;;;11.64;64.77;102384.31;1860389;77;20154;-61
2021/10/08 08:35:04;;;;;;;;;;;;;;;11.81;65.15;102380.95;1860360;77;20139;-61
2021/10/08 08:37:32;;;;;;;;;;;;;;;12.06;65.08;102376.55;1860351;77;20377;-61
2021/10/08 08:40:02;;;;;;;;;;;;;;;12.64;64.51;102378.02;1860311;77;20151;-61
2021/10/08 08:42:29;;;;;;;;;;;;;;;12.71;62.75;102382.27;1860301;77;20143;-61
2021/10/08 08:44:57;;;;;;;;;;;;;;;12.65;62.13;102386.81;1860314;77;20135;-61
2021/10/08 08:47:26;;;;;;;;;;;;;;;12.64;62.39;102384.62;1860368;77;20147;-61
2021/10/08 08:49:54;;;;;;;;;;;;;;;12.85;61.93;102369.20;1860531;77;20397;-61
2021/10/08 08:52:22;;;;;;;;;;;;;;;13.22;60.65;102375.81;1860367;77;20181;-61
2021/10/08 08:54:52;;;;;;;;;;;;;;;13.51;60.42;102382.20;1860331;77;20139;-61
2021/10/08 08:57:20;;;;;;;;;;;;;;;13.61;60.52;102373.57;1860450;77;20182;-61
2021/10/08 09:00:01;;;;;;;;;;;;;;;13.87;60.04;102379.07;1860500;77;20397;-61
2021/10/08 09:02:30;;;;;;;;;;;;;;;14.59;57.41;102368.25;1860333;77;20193;-61
2021/10/08 09:04:58;;;;;;;;;;;;;;;14.66;56.26;102367.58;1860288;77;20139;-61
2021/10/08 09:07:27;;;;;;;;;;;;;;;14.62;57.52;102367.27;1860298;77;20146;-61
2021/10/08 09:09:55;;;;;;;;;;;;;;;14.68;56.39;102365.75;1855309;77;20140;-61
2021/10/08 09:12:24;;;;;;;;;;;;;;;14.45;56.39;102356.68;1841112;78;20136;-61
2021/10/08 09:14:54;;;;;;;;;;;;;;;14.83;55.87;102353.84;1841073;78;20151;-61
2021/10/08 09:17:21;;;;;;;;;;;;;;;15.49;54.75;102360.09;1840439;78;20163;-61
2021/10/08 09:19:54;;;;;;;;;;;;;;;16.36;52.10;102353.49;1841060;78;20140;-61
2021/10/08 09:22:30;;;;;;;;;;;;;;;16.94;51.98;102348.57;1841077;78;20222;-60
2021/10/08 09:24:59;;;;;;;;;;;;;;;17.74;49.67;102347.02;1841039;78;20136;-61
2021/10/08 09:27:27;;;;;;;;;;;;;;;17.99;48.42;102347.31;1839969;77;20144;-61
2021/10/08 09:29:55;;;;;;;;;;;;;;;18.18;46.76;102339.34;1841093;78;20175;-61
2021/10/08 09:32:24;;;;;;;;;;;;;;;18.29;47.64;102342.38;1841017;78;20147;-62
2021/10/08 09:34:57;;;;;;;;;;;;;;;18.54;47.34;102343.92;1841026;78;20389;-61
2021/10/08 09:37:26;;;;;;;;;;;;;;;18.97;46.72;102340.55;1836116;77;20128;-61
2021/10/08 09:39:54;;;;;;;;;;;;;;;19.13;45.99;102336.18;1841173;78;20174;-61
2021/10/08 09:42:22;;;;;;;;;;;;;;;19.27;44.88;102329.69;1841054;78;20182;-61
2021/10/08 09:44:51;;;;;;;;;;;;;;;18.83;45.05;102335.42;1841012;78;20188;-61
2021/10/08 09:47:20;;;;;;;;;;;;;;;18.08;46.00;102333.58;1841004;78;20257;-61
2021/10/08 09:49:48;;;;;;;;;;;;;;;18.17;46.63;102325.60;1841047;78;20147;-62
2021/10/08 09:52:27;;;;;;;;;;;;;;;18.14;46.17;102328.81;1841033;78;20148;-61
2021/10/08 09:54:59;;;;;;;;;;;;;;;18.26;45.59;102330.52;1841032;78;20178;-61
2021/10/08 09:57:28;;;;;;;;;;;;;;;18.24;45.92;102325.72;1841127;78;20425;-62
2021/10/08 09:59:56;;;;;;;;;;;;;;;18.46;45.84;102318.48;1841004;78;20264;-62
2021/10/08 10:02:24;;;;;;;;;;;;;;;18.75;45.84;102315.34;1841044;78;20132;-61
2021/10/08 10:05:00;;;;;;;;;;;;;;;19.05;45.04;102315.21;1841013;78;20237;-61
2021/10/08 10:07:27;;;;;;;;;;;;;;;19.31;44.89;102308.14;1841188;78;20183;-61
2021/10/08 10:09:55;;;;;;;;;;;;;;;18.61;45.37;102307.98;1840962;77;20237;-63
2021/10/08 10:12:23;;;;;;;;;;;;;;;18.54;45.43;102317.25;1840992;78;20198;-61
2021/10/08 10:14:52;;;;;;;;;;;;;;;18.21;46.46;102312.56;1841040;78;20151;-61
2021/10/08 10:17:19;;;;;;;;;;;;;;;18.48;46.62;102315.70;1841120;78;20187;-61
2021/10/08 10:19:47;;;;;;;;;;;;;;;18.97;46.41;102312.52;1841074;78;20135;-61
2021/10/08 10:22:19;;;;;;;;;;;;;;;19.37;45.90;102304.70;1841072;78;20170;-61
2021/10/08 10:24:48;;;;;;;;;;;;;;;19.61;45.37;102298.55;1841222;78;20148;-61
2021/10/08 10:27:17;;;;;;;;;;;;;;;19.46;44.10;102302.03;1841349;78;20190;-61
2021/10/08 10:29:47;;;;;;;;;;;;;;;19.08;44.80;102306.17;1841248;78;20152;-61
2021/10/08 10:32:15;;;;;;;;;;;;;;;18.92;44.74;102302.53;1841138;78;20174;-61
2021/10/08 10:34:43;;;;;;;;;;;;;;;18.68;46.05;102302.75;1841121;78;20178;-61
2021/10/08 10:37:11;;;;;;;;;;;;;;;18.96;45.81;102298.31;1841063;78;20136;-61
2021/10/08 10:39:40;;;;;;;;;;;;;;;19.24;45.63;102296.92;1841125;78;20135;-61
2021/10/08 10:42:16;;;;;;;;;;;;;;;19.57;45.11;102295.66;1841119;78;20534;-61
2021/10/08 10:45:02;;;;;;;;;;;;;;;19.59;45.26;102295.09;1841208;78;20152;-61
2021/10/08 10:47:33;;;;;;;;;;;;;;;19.63;44.85;102284.63;1841103;78;20195;-61
2021/10/08 10:50:03;;;;;;;;;;;;;;;19.31;43.99;102292.12;1841266;77;20214;-61
2021/10/08 10:52:31;;;;;;;;;;;;;;;18.82;45.38;102288.31;1836418;77;20174;-61
2021/10/08 10:55:02;;;;;;;;;;;;;;;18.38;45.82;102292.62;1841142;78;20174;-61
2021/10/08 10:57:31;;;;;;;;;;;;;;;18.07;45.91;102294.04;1841278;78;20135;-61
2021/10/08 11:00:17;;;;;;;;;;;;;;;18.12;46.83;102292.03;1841073;78;20551;-62
2021/10/08 11:02:45;;;;;;;;;;;;;;;18.40;46.75;102293.89;1841228;78;20136;-61
2021/10/08 11:05:25;;;;;;;;;;;;;;;18.56;45.70;102302.89;1841115;78;20151;-61
2021/10/08 11:07:44;;;;;;;;;;;;;;;18.16;46.74;102291.91;1840569;77;20168;-61
2021/10/08 11:10:13;;;;;;;;;;;;;;;17.94;47.19;102299.54;1838691;78;20144;-62
2021/10/08 11:12:42;;;;;;;;;;;;;;;17.61;47.34;102307.20;1858912;77;20143;-61
2021/10/08 11:15:18;;;;;;;;;;;;;;;17.21;47.98;102298.26;1860399;77;20202;-61
2021/10/08 11:17:53;;;;;;;;;;;;;;;17.05;48.43;102296.73;1860404;77;20188;-61
2021/10/08 11:20:27;;;;;;;;;;;;;;;17.29;48.45;102297.48;1860344;77;20438;-61
2021/10/08 11:23:02;;;;;;;;;;;;;;;17.60;48.19;102294.36;1860372;77;20177;-61
2021/10/08 11:25:31;;;;;;;;;;;;;;;17.70;47.82;102291.67;1860379;77;20225;-61
2021/10/08 11:27:59;;;;;;;;;;;;;;;17.75;47.59;102292.34;1860509;77;20135;-61
2021/10/08 11:30:28;;;;;;;;;;;;;;;17.53;48.07;102283.10;1860470;77;20138;-61
2021/10/08 11:32:57;;;;;;;;;;;;;;;17.31;48.27;102287.16;1860384;77;20159;-61
2021/10/08 11:35:32;;;;;;;;;;;;;;;17.03;49.29;102279.95;1860504;77;20170;-62
2021/10/08 11:38:00;;;;;;;;;;;;;;;16.82;49.79;102282.55;1859383;77;20135;-61
2021/10/08 11:40:42;;;;;;;;;;;;;;;16.58;49.48;102281.27;1860386;77;20432;-61
2021/10/08 11:43:28;;;;;;;;;;;;;;;16.31;50.29;102275.71;1860268;77;20162;-61
2021/10/08 11:46:01;;;;;;;;;;;;;;;16.12;50.98;102272.87;1860252;77;20198;-61
2021/10/08 11:48:27;;;;;;;;;;;;;;;15.90;51.17;102264.40;1860530;77;20245;-61
2021/10/08 11:53:42;;;;;;;;;;;;;;;15.59;51.85;102267.27;1860512;77;20134;-61
2021/10/08 11:56:24;;;;;;;;;;;;;;;15.47;52.62;102265.05;1860404;77;20464;-61
2021/10/08 11:58:43;;;;;;;;;;;;;;;15.36;52.64;102265.41;1860637;77;20139;-61
2021/10/08 12:01:12;;;;;;;;;;;;;;;15.26;53.26;102262.22;1860466;77;20147;-63
2021/10/08 12:03:40;;;;;;;;;;;;;;;15.13;53.07;102263.56;1859495;77;20198;-62
2021/10/08 12:06:08;;;;;;;;;;;;;;;15.00;53.21;102260.45;1860335;77;20135;-62
2021/10/08 12:08:37;;;;;;;;;;;;;;;14.93;53.46;102261.11;1860452;77;20169;-62
2021/10/08 12:11:13;;;;;;;;;;;;;;;14.88;53.70;102260.86;1859817;77;20393;-62
2021/10/08 12:14:04;;;;;;;;;;;;;;;14.89;54.23;102259.95;1841216;78;20186;-62
2021/10/08 12:16:40;;;;;;;;;;;;;;;14.92;54.39;102258.06;1840874;77;20226;-62
2021/10/08 12:19:09;;;;;;;;;;;;;;;14.95;54.23;102267.23;1841116;78;20448;-61
2021/10/08 12:21:41;;;;;;;;;;;;;;;14.92;54.35;102261.16;1841059;78;20148;-62
2021/10/08 12:24:10;;;;;;;;;;;;;;;14.86;54.40;102259.14;1840120;77;20144;-61
2021/10/08 12:26:39;;;;;;;;;;;;;;;14.84;54.20;102255.64;1841047;78;20183;-62
2021/10/08 12:29:09;;;;;;;;;;;;;;;14.80;54.02;102261.11;1841091;78;20386;-62
2021/10/08 12:31:57;;;;;;;;;;;;;;;14.75;54.26;102260.39;1840927;77;20148;-61
2021/10/08 12:34:48;;;;;;;;;;;;;;;14.75;54.62;102265.69;1841071;78;20401;-62
2021/10/08 12:37:19;;;;;;;;;;;;;;;14.78;54.51;102268.25;1841088;78;20148;-61
2021/10/08 12:40:10;;;;;;;;;;;;;;;14.78;54.55;102257.64;1841222;78;20147;-62
2021/10/08 12:42:40;;;;;;;;;;;;;;;14.78;54.69;102257.17;1841119;78;20147;-62
2021/10/08 12:45:22;;;;;;;;;;;;;;;14.74;54.66;102266.63;1841089;78;20178;-62
2021/10/08 12:47:51;;;;;;;;;;;;;;;14.69;54.94;102260.59;1841072;78;20241;-62
2021/10/08 12:50:23;;;;;;;;;;;;;;;14.68;55.38;102259.70;1841105;78;20178;-62
2021/10/08 12:52:52;;;;;;;;;;;;;;;14.66;55.46;102251.83;1841026;78;20530;-62
2021/10/08 12:55:21;;;;;;;;;;;;;;;14.66;55.37;102259.78;1841115;78;20406;-62
2021/10/08 12:57:59;;;;;;;;;;;;;;;14.64;55.01;102254.98;1841075;78;20389;-62
2021/10/08 13:00:41;;;;;;;;;;;;;;;14.62;55.00;102248.84;1841082;78;20148;-61